Time;durP1;ratioP1;P1;durP2;ratioP2;P2;SDS_P1;SDS_P2;PMS_P1;PMS_P2;Temp;Humidity;BMP_temperature;BMP_pressure;BME280_temperature;BME280_humidity;BME280_pressure;Samples;Min_cycle;Max_cycle;Signal;HPM_P1;HPM_P2
2022/04/26 03:37:20;;;;;;;4.97;3.73;;;8.80;1.00;;;;;;5059266;28;20201;-53
2022/04/26 03:39:47;;;;;;;5.33;3.27;;;8.70;1.00;;;;;;5060547;28;20199;-52
2022/04/26 03:42:14;;;;;;;6.13;3.50;;;8.70;1.00;;;;;;5059923;28;20314;-55
2022/04/26 03:44:42;;;;;;;4.70;3.93;;;8.70;1.00;;;;;;5037916;28;20194;-54
2022/04/26 03:47:09;;;;;;;4.03;3.33;;;8.70;1.00;;;;;;5064236;28;20230;-53
2022/04/26 03:49:36;;;;;;;4.67;3.30;;;8.70;1.00;;;;;;5059584;28;20324;-51
2022/04/26 03:52:04;;;;;;;6.23;3.70;;;8.70;54.30;;;;;;5064888;28;20199;-53
2022/04/26 03:54:31;;;;;;;6.73;3.57;;;8.80;1.00;;;;;;5062192;28;20257;-54
2022/04/26 03:56:58;;;;;;;6.43;3.60;;;8.80;1.00;;;;;;5060139;28;20199;-54
2022/04/26 03:59:25;;;;;;;6.30;3.90;;;8.80;1.00;;;;;;5060007;28;20207;-55
2022/04/26 04:01:52;;;;;;;4.63;4.13;;;8.80;40.70;;;;;;5056584;28;20209;-53
2022/04/26 04:04:19;;;;;;;3.80;3.50;;;8.90;76.00;;;;;;5053930;28;20221;-54
2022/04/26 04:06:46;;;;;;;5.87;3.40;;;8.70;39.40;;;;;;5057464;28;20245;-53
2022/04/26 04:09:13;;;;;;;4.73;3.53;;;8.70;1.00;;;;;;5058987;28;20312;-54
2022/04/26 04:11:40;;;;;;;7.23;3.70;;;8.70;99.90;;;;;;5063181;28;20277;-53
2022/04/26 04:14:06;;;;;;;6.17;3.70;;;8.70;1.00;;;;;;5060291;28;20237;-54
2022/04/26 04:16:33;;;;;;;8.30;3.77;;;8.80;1.00;;;;;;5061163;28;20296;-55
2022/04/26 04:19:18;;;;;;;8.33;3.47;;;8.80;99.90;;;;;;5041964;28;20218;-53
2022/04/26 04:21:46;;;;;;;4.90;3.40;;;8.70;1.00;;;;;;5062478;28;20260;-53
2022/04/26 04:24:14;;;;;;;4.73;3.53;;;8.80;1.00;;;;;;5061362;28;20258;-54
2022/04/26 04:26:42;;;;;;;4.70;4.00;;;8.90;99.90;;;;;;5066629;28;20648;-52
2022/04/26 04:29:09;;;;;;;8.10;3.83;;;8.80;99.90;;;;;;5065337;28;20251;-53
2022/04/26 04:31:36;;;;;;;4.27;3.37;;;8.80;1.00;;;;;;5060698;28;20564;-53
2022/04/26 04:34:03;;;;;;;4.53;3.30;;;8.70;1.00;;;;;;5044373;28;20575;-54
2022/04/26 04:36:30;;;;;;;5.23;4.00;;;8.80;1.00;;;;;;5062963;28;20686;-54
2022/04/26 04:38:57;;;;;;;5.97;4.10;;;8.80;1.00;;;;;;5066790;28;20206;-53
2022/04/26 04:41:24;;;;;;;6.30;4.23;;;8.90;1.00;;;;;;5066044;28;20303;-55
2022/04/26 04:43:51;;;;;;;6.93;3.53;;;8.80;1.00;;;;;;5064884;28;20464;-54
2022/04/26 04:46:18;;;;;;;4.70;3.50;;;8.80;1.00;;;;;;5060091;28;20251;-54
2022/04/26 04:48:45;;;;;;;6.87;4.43;;;8.70;1.00;;;;;;5063356;28;20539;-54
2022/04/26 04:51:12;;;;;;;5.77;3.83;;;8.80;1.00;;;;;;5062832;28;20201;-53
2022/04/26 04:53:39;;;;;;;7.17;4.50;;;8.80;1.00;;;;;;5066690;28;20497;-54
2022/04/26 04:56:10;;;;;;;6.23;3.93;;;8.80;1.00;;;;;;5063098;28;20209;-54
2022/04/26 04:58:38;;;;;;;8.77;4.27;;;8.90;1.00;;;;;;5065380;28;20205;-54
2022/04/26 05:01:05;;;;;;;7.37;4.10;;;8.90;1.00;;;;;;5043676;28;20727;-53
2022/04/26 05:03:32;;;;;;;5.73;3.83;;;9.00;1.00;;;;;;5062661;28;20317;-56
2022/04/26 05:05:59;;;;;;;10.30;4.47;;;8.90;1.00;;;;;;5064168;28;20838;-54
2022/04/26 05:08:26;;;;;;;4.30;3.70;;;8.80;1.00;;;;;;5064360;28;20206;-53
2022/04/26 05:10:52;;;;;;;7.57;4.47;;;8.80;1.00;;;;;;5046142;28;20190;-53
2022/04/26 05:13:20;;;;;;;8.97;4.47;;;8.80;1.00;;;;;;5063478;28;20332;-55
2022/04/26 05:15:47;;;;;;;7.33;4.87;;;8.80;1.00;;;;;;5044354;28;20663;-54
2022/04/26 05:18:14;;;;;;;9.63;4.27;;;8.80;1.00;;;;;;5064073;28;20209;-53
2022/04/26 05:20:42;;;;;;;10.50;5.10;;;8.90;1.00;;;;;;5040119;28;20200;-54
2022/04/26 05:25:54;;;;;;;6.50;4.40;;;8.80;1.00;;;;;;5054065;28;20626;-55
2022/04/26 05:28:21;;;;;;;7.97;4.90;;;8.70;1.00;;;;;;5063768;28;20256;-54
2022/04/26 05:30:53;;;;;;;8.40;5.33;;;8.80;1.00;;;;;;5063255;28;20852;-53
2022/04/26 05:33:21;;;;;;;9.33;5.23;;;8.70;8.80;;;;;;5065036;28;20662;-53
2022/04/26 05:35:49;;;;;;;7.50;5.47;;;8.80;83.60;;;;;;5064172;28;20318;-55
2022/04/26 05:38:16;;;;;;;12.23;6.13;;;9.00;90.10;;;;;;5065100;28;20228;-53
2022/04/26 05:40:43;;;;;;;8.30;5.10;;;8.90;19.50;;;;;;5062445;28;20215;-54
2022/04/26 05:43:11;;;;;;;7.77;5.60;;;8.80;94.30;;;;;;5064045;28;20812;-56
2022/04/26 05:45:38;;;;;;;7.73;4.90;;;8.80;99.90;;;;;;5062608;28;20286;-54
2022/04/26 05:48:09;;;;;;;10.67;6.00;;;8.80;99.90;;;;;;5063478;28;20288;-56
2022/04/26 05:50:37;;;;;;;9.80;5.80;;;8.80;99.90;;;;;;5060826;28;20278;-54
2022/04/26 05:53:04;;;;;;;10.17;5.97;;;8.80;99.90;;;;;;5063004;28;20291;-54
2022/04/26 05:55:31;;;;;;;13.00;6.37;;;8.80;99.90;;;;;;5062914;28;20289;-55
2022/04/26 05:57:58;;;;;;;8.90;5.93;;;8.80;99.90;;;;;;5059596;28;20635;-55
2022/04/26 06:00:25;;;;;;;9.47;6.00;;;8.80;99.90;;;;;;5059254;28;20423;-54
2022/04/26 06:02:51;;;;;;;8.17;6.10;;;8.90;99.90;;;;;;5061569;28;20229;-52
2022/04/26 06:05:20;;;;;;;13.87;6.90;;;8.80;66.90;;;;;;5053888;28;20199;-53
2022/04/26 06:07:47;;;;;;;11.83;6.23;;;8.80;99.90;;;;;;5059080;28;20415;-54
2022/04/26 06:10:14;;;;;;;11.40;6.60;;;8.80;86.70;;;;;;5063396;28;20202;-56
2022/04/26 06:12:44;;;;;;;13.40;7.17;;;8.80;73.30;;;;;;5057081;28;20674;-55
2022/04/26 06:15:12;;;;;;;8.73;6.53;;;8.90;74.80;;;;;;5062904;28;20197;-53
2022/04/26 06:17:39;;;;;;;11.67;6.53;;;8.80;1.00;;;;;;5064611;28;20202;-54
2022/04/26 06:20:06;;;;;;;9.60;7.27;;;8.80;1.20;;;;;;5062373;28;20605;-54
2022/04/26 06:22:33;;;;;;;12.60;7.30;;;8.90;70.60;;;;;;5062450;28;20229;-53
2022/04/26 06:25:00;;;;;;;10.53;7.50;;;9.00;1.00;;;;;;5058023;28;20300;-55
2022/04/26 06:27:27;;;;;;;11.53;8.03;;;9.00;1.00;;;;;;5063367;28;20608;-53
2022/04/26 06:29:54;;;;;;;12.43;6.67;;;9.10;1.00;;;;;;5058256;28;20259;-53
2022/04/26 06:32:20;;;;;;;11.20;7.10;;;9.20;1.00;;;;;;5063928;28;20375;-56
2022/04/26 06:34:47;;;;;;;11.30;6.93;;;9.30;1.00;;;;;;5059740;28;20300;-55
2022/04/26 06:37:14;;;;;;;10.13;7.07;;;9.30;1.00;;;;;;5058585;28;20567;-53
2022/04/26 06:39:41;;;;;;;7.70;6.67;;;9.20;1.00;;;;;;5061444;28;20205;-55
2022/04/26 06:42:08;;;;;;;10.37;6.90;;;9.10;99.90;;;;;;5063156;28;20194;-53
2022/04/26 06:44:35;;;;;;;8.87;6.70;;;9.10;1.00;;;;;;5061642;28;20712;-54
2022/04/26 06:47:03;;;;;;;11.87;6.53;;;9.20;99.90;;;;;;5062495;28;20200;-52
2022/04/26 06:49:29;;;;;;;10.73;5.67;;;9.30;1.00;;;;;;5059761;28;20197;-52
2022/04/26 06:51:57;;;;;;;14.47;7.07;;;9.30;1.00;;;;;;5061510;28;20199;-52
2022/04/26 06:54:24;;;;;;;10.57;6.07;;;9.40;99.90;;;;;;5060293;28;20253;-53
2022/04/26 06:56:51;;;;;;;13.93;6.63;;;9.50;99.90;;;;;;5062840;28;20661;-52
2022/04/26 06:59:18;;;;;;;10.87;6.10;;;9.50;99.90;;;;;;5059438;28;20302;-53
2022/04/26 07:01:52;;;;;;;11.30;6.77;;;9.40;99.90;;;;;;5062541;28;20578;-56
2022/04/26 07:04:20;;;;;;;13.97;6.40;;;9.50;1.00;;;;;;5059583;28;20219;-54
2022/04/26 07:06:48;;;;;;;10.60;6.37;;;9.60;1.00;;;;;;5063993;28;20793;-53
2022/04/26 07:09:15;;;;;;;9.67;6.13;;;9.80;1.00;;;;;;5060993;28;20266;-53
2022/04/26 07:11:42;;;;;;;10.60;5.53;;;10.10;99.90;;;;;;5061745;28;20285;-53
2022/04/26 07:14:11;;;;;;;9.83;5.47;;;9.80;99.90;;;;;;5057770;28;20224;-53
2022/04/26 07:16:48;;;;;;;9.67;6.23;;;9.80;1.00;;;;;;5063219;28;20203;-53
2022/04/26 07:19:15;;;;;;;6.83;5.63;;;9.70;1.00;;;;;;5056717;28;20203;-53
2022/04/26 07:21:44;;;;;;;6.53;5.80;;;9.70;99.90;;;;;;5061486;28;20298;-55
2022/04/26 07:24:28;;;;;;;9.83;5.57;;;9.80;99.90;;;;;;5052833;28;20215;-54
2022/04/26 07:26:55;;;;;;;10.33;5.53;;;9.80;1.00;;;;;;5054883;28;20229;-54
2022/04/26 07:29:22;;;;;;;8.57;5.70;;;9.90;1.00;;;;;;5034409;28;20202;-54
2022/04/26 07:31:49;;;;;;;12.87;5.70;;;9.90;1.00;;;;;;5056617;28;20661;-54
2022/04/26 07:34:22;;;;;;;10.40;5.03;;;9.90;1.00;;;;;;5054976;28;20332;-53
2022/04/26 07:36:51;;;;;;;8.00;4.60;;;9.80;99.90;;;;;;5021550;28;20197;-53
2022/04/26 07:39:18;;;;;;;6.07;4.47;;;9.90;1.00;;;;;;5053453;28;20644;-53
2022/04/26 07:41:46;;;;;;;9.00;4.40;;;10.00;99.90;;;;;;5059903;28;20696;-55
2022/04/26 07:44:14;;;;;;;11.73;4.37;;;10.00;1.00;;;;;;5054959;28;20307;-55
2022/04/26 07:46:44;;;;;;;7.80;5.13;;;10.00;31.70;;;;;;5057466;28;20249;-54
2022/04/26 07:49:11;;;;;;;9.80;5.37;;;10.00;37.70;;;;;;5057655;28;20686;-54
2022/04/26 07:51:39;;;;;;;6.47;4.93;;;10.10;1.00;;;;;;5060382;28;20876;-53
2022/04/26 07:54:06;;;;;;;9.97;5.20;;;10.40;1.00;;;;;;5053814;28;20210;-53
2022/04/26 07:56:33;;;;;;;7.53;4.20;;;10.40;1.00;;;;;;5064193;28;20715;-54
2022/04/26 07:59:01;;;;;;;7.90;4.37;;;10.30;1.00;;;;;;5062226;28;20669;-54
2022/04/26 08:01:28;;;;;;;7.33;4.37;;;10.30;1.00;;;;;;5066496;28;21533;-53
2022/04/26 08:03:56;;;;;;;7.80;3.70;;;10.60;1.00;;;;;;5057654;28;20517;-53
2022/04/26 08:06:23;;;;;;;8.63;4.47;;;10.20;99.90;;;;;;5057234;28;20195;-53
2022/04/26 08:08:50;;;;;;;7.83;3.50;;;10.20;1.00;;;;;;5058495;28;20241;-56
2022/04/26 08:11:17;;;;;;;5.93;3.60;;;10.20;1.00;;;;;;5059640;28;20895;-53
2022/04/26 08:13:44;;;;;;;5.70;4.07;;;10.10;1.00;;;;;;5042665;28;20280;-54
2022/04/26 08:16:16;;;;;;;5.57;3.50;;;10.20;1.00;;;;;;5043180;28;20226;-54
2022/04/26 08:18:43;;;;;;;6.77;3.97;;;10.30;1.00;;;;;;5036344;28;20262;-54
2022/04/26 08:21:14;;;;;;;4.97;3.40;;;10.40;1.00;;;;;;5060049;28;20238;-53
2022/04/26 08:29:14;;;;;;;8.83;4.87;;;10.50;1.00;;;;;;5065138;28;20650;-53
2022/04/26 08:31:42;;;;;;;7.67;3.87;;;10.50;99.90;;;;;;5063178;28;20225;-55
2022/04/26 08:34:09;;;;;;;7.20;3.47;;;10.90;1.00;;;;;;5056025;28;20671;-54
2022/04/26 08:36:36;;;;;;;6.87;3.37;;;11.20;1.00;;;;;;5065742;28;20700;-53
2022/04/26 08:39:03;;;;;;;8.30;3.87;;;12.10;1.00;;;;;;5064345;28;20268;-53
2022/04/26 08:41:30;;;;;;;5.93;3.50;;;12.50;1.00;;;;;;5066940;28;20333;-54
2022/04/26 08:43:57;;;;;;;8.80;3.33;;;12.40;1.00;;;;;;5065548;28;20364;-53
2022/04/26 08:50:59;;;;;;;4.50;3.17;;;12.40;99.90;;;;;;5061536;28;20206;-51
2022/04/26 08:52:02;;;;;;;5.43;2.97;;;12.10;1.00;;;;;;5060063;28;20227;-53
2022/04/26 08:54:31;;;;;;;8.87;3.60;;;12.70;31.30;;;;;;5063499;28;20206;-53
2022/04/26 08:56:58;;;;;;;5.10;3.00;;;13.00;1.00;;;;;;5059900;28;20627;-54
2022/04/26 08:59:25;;;;;;;4.53;2.90;;;12.40;1.00;;;;;;5060957;28;20290;-51
2022/04/26 09:02:19;;;;;;;4.07;2.50;;;12.10;1.00;;;;;;5043569;28;20256;-53
2022/04/26 09:04:49;;;;;;;5.47;2.17;;;12.10;1.00;;;;;;5061643;28;20559;-56
2022/04/26 09:07:39;;;;;;;7.70;2.73;;;13.00;1.00;;;;;;5063677;28;20204;-52
2022/04/26 09:10:16;;;;;;;4.03;2.20;;;12.70;99.90;;;;;;5059996;28;20204;-53
2022/04/26 09:13:09;;;;;;;8.33;2.53;;;12.40;99.90;;;;;;5060929;28;20240;-53
2022/04/26 09:15:42;;;;;;;4.93;2.37;;;12.30;99.90;;;;;;5060528;28;20288;-53
2022/04/26 09:18:17;;;;;;;4.10;2.33;;;12.30;99.90;;;;;;5058383;28;20401;-53
2022/04/26 09:20:45;;;;;;;4.43;2.40;;;12.50;99.90;;;;;;5059824;28;20247;-54
2022/04/26 09:23:19;;;;;;;6.67;3.17;;;12.40;99.90;;;;;;5058623;28;20232;-53
2022/04/26 09:25:48;;;;;;;5.03;2.60;;;13.40;99.90;;;;;;5054929;28;20222;-53
2022/04/26 09:28:24;;;;;;;5.73;2.57;;;13.90;1.00;;;;;;5052923;28;20209;-54
2022/04/26 09:30:52;;;;;;;5.47;2.90;;;13.60;86.50;;;;;;5063341;28;20283;-53
2022/04/26 09:33:39;;;;;;;4.10;2.60;;;13.30;2.20;;;;;;5044352;28;20204;-53
2022/04/26 09:36:09;;;;;;;6.10;2.80;;;12.90;99.90;;;;;;5030146;28;21862;-53
2022/04/26 09:38:37;;;;;;;4.43;2.50;;;12.90;99.90;;;;;;5057670;28;20204;-54
2022/04/26 09:41:09;;;;;;;5.53;2.50;;;13.90;1.00;;;;;;5061550;28;20636;-52
2022/04/26 09:43:37;;;;;;;9.63;3.03;;;13.60;1.00;;;;;;5061010;28;20215;-53
2022/04/26 09:46:06;;;;;;;3.53;2.57;;;13.20;36.00;;;;;;5058622;28;20267;-52
2022/04/26 09:48:38;;;;;;;2.83;2.20;;;12.80;99.90;;;;;;5062184;28;20566;-53
2022/04/26 09:51:07;;;;;;;5.03;2.80;;;13.10;94.00;;;;;;5043644;28;20199;-52
2022/04/26 09:53:34;;;;;;;4.90;2.47;;;13.20;1.00;;;;;;5065241;28;20287;-54
2022/04/26 09:56:04;;;;;;;7.93;3.37;;;13.50;1.00;;;;;;5054185;28;20321;-58
2022/04/26 09:58:49;;;;;;;5.10;2.70;;;13.20;1.00;;;;;;5058188;28;20207;-54
2022/04/26 10:01:16;;;;;;;5.93;3.00;;;13.20;1.00;;;;;;5059222;28;20195;-54
2022/04/26 10:03:46;;;;;;;4.10;2.70;;;13.30;1.00;;;;;;5057795;28;20237;-54
2022/04/26 10:06:16;;;;;;;3.27;2.13;;;12.70;1.00;;;;;;5059066;28;20207;-54
2022/04/26 10:08:44;;;;;;;3.33;2.13;;;12.40;1.00;;;;;;5058389;28;20203;-54
2022/04/26 10:11:11;;;;;;;4.63;2.13;;;12.50;1.00;;;;;;5053558;28;20310;-53
2022/04/26 10:13:39;;;;;;;3.20;2.40;;;12.60;1.00;;;;;;5037348;28;20215;-53
2022/04/26 10:16:10;;;;;;;4.07;2.37;;;12.70;1.00;;;;;;5055546;28;20733;-53
2022/04/26 10:18:37;;;;;;;3.23;2.30;;;12.80;99.90;;;;;;5055227;28;20203;-53
2022/04/26 10:21:06;;;;;;;2.70;2.23;;;12.90;99.90;;;;;;5039567;28;20358;-54
2022/04/26 10:23:51;;;;;;;5.17;2.57;;;13.00;1.00;;;;;;5054996;28;20280;-53
2022/04/26 10:26:24;;;;;;;3.37;2.40;;;13.00;1.00;;;;;;5055525;28;20311;-53
2022/04/26 10:28:54;;;;;;;4.87;2.50;;;13.00;1.00;;;;;;5056215;28;21815;-54
2022/04/26 10:31:38;;;;;;;4.67;2.50;;;13.10;99.90;;;;;;5054553;28;20291;-55
2022/04/26 10:34:29;;;;;;;3.93;2.60;;;13.10;99.90;;;;;;5053973;28;20560;-54
2022/04/26 10:37:00;;;;;;;4.00;2.67;;;13.70;99.90;;;;;;5057934;28;20199;-54
2022/04/26 10:39:35;;;;;;;4.73;2.67;;;13.40;99.90;;;;;;5055746;28;20206;-53
2022/04/26 10:42:24;;;;;;;3.83;2.73;;;13.80;99.90;;;;;;5056010;28;20242;-53
2022/04/26 10:44:51;;;;;;;4.17;2.50;;;13.60;99.90;;;;;;5056692;28;20302;-54
2022/04/26 10:47:18;;;;;;;3.17;2.50;;;13.70;99.90;;;;;;5058810;28;20365;-54
2022/04/26 10:49:47;;;;;;;5.97;2.87;;;13.70;99.90;;;;;;5058313;28;20200;-54
2022/04/26 10:52:22;;;;;;;6.43;2.47;;;14.00;99.90;;;;;;5055382;28;20647;-53
2022/04/26 10:54:53;;;;;;;2.73;2.30;;;14.20;99.90;;;;;;5058001;28;20221;-53
2022/04/26 10:57:20;;;;;;;4.80;2.87;;;14.60;99.90;;;;;;5060388;28;20300;-54
2022/04/26 10:59:58;;;;;;;5.00;3.00;;;14.50;99.90;;;;;;5058978;28;20212;-53
2022/04/26 11:02:26;;;;;;;5.60;3.23;;;14.70;1.00;;;;;;5059328;28;20227;-53
2022/04/26 11:05:01;;;;;;;6.67;3.03;;;14.00;1.00;;;;;;5058284;28;20213;-55
2022/04/26 11:07:29;;;;;;;6.03;3.80;;;14.10;1.00;;;;;;5053227;28;20227;-53
2022/04/26 11:10:00;;;;;;;4.43;3.40;;;14.30;1.00;;;;;;5049844;28;20279;-53
2022/04/26 11:12:29;;;;;;;5.03;3.37;;;14.50;1.00;;;;;;5058805;28;20573;-53
2022/04/26 11:14:59;;;;;;;4.87;2.87;;;14.50;1.00;;;;;;5054870;28;20197;-53
2022/04/26 11:17:29;;;;;;;5.63;3.23;;;14.50;1.00;;;;;;5054844;28;20289;-60
2022/04/26 11:20:01;;;;;;;3.03;2.73;;;14.70;99.90;;;;;;5059762;28;20456;-54
2022/04/26 11:22:28;;;;;;;3.43;3.10;;;14.80;99.90;;;;;;5058070;28;20933;-54
2022/04/26 11:30:56;;;;;;;4.93;2.83;;;14.80;99.90;;;;;;5038375;28;20195;-56
2022/04/26 11:33:24;;;;;;;5.53;2.70;;;15.30;99.90;;;;;;5056328;28;20208;-53
2022/04/26 11:35:56;;;;;;;3.37;2.40;;;15.30;35.40;;;;;;5057926;28;20518;-53
2022/04/26 11:38:24;;;;;;;4.53;2.83;;;15.40;14.00;;;;;;5054442;28;20234;-54
2022/04/26 11:40:52;;;;;;;3.00;2.53;;;15.20;22.10;;;;;;5036581;28;20311;-53
2022/04/26 11:43:22;;;;;;;4.43;2.80;;;14.70;99.90;;;;;;5051919;28;20690;-53
2022/04/26 11:45:53;;;;;;;3.20;2.90;;;14.60;99.90;;;;;;5058151;28;21524;-52
2022/04/26 11:48:34;;;;;;;4.13;2.50;;;15.20;99.90;;;;;;5056152;28;20296;-54
2022/04/26 11:51:02;;;;;;;4.40;3.10;;;15.50;99.90;;;;;;5059825;28;20200;-53
2022/04/26 11:53:31;;;;;;;3.70;3.10;;;14.70;99.90;;;;;;5058432;28;20247;-54
2022/04/26 11:56:03;;;;;;;4.17;2.37;;;15.20;99.90;;;;;;5055506;28;20518;-53
2022/04/26 11:58:32;;;;;;;4.67;2.60;;;15.10;99.90;;;;;;5054911;28;20723;-52
2022/04/26 12:01:00;;;;;;;5.77;2.73;;;15.40;99.90;;;;;;5056102;28;20329;-51
2022/04/26 12:03:38;;;;;;;8.67;3.00;;;15.60;99.90;;;;;;5056844;28;20197;-53
2022/04/26 12:06:06;;;;;;;6.63;3.03;;;15.10;99.90;;;;;;5057229;28;20255;-50
2022/04/26 12:08:36;;;;;;;3.50;2.77;;;15.10;99.90;;;;;;5059123;28;20186;-54
2022/04/26 12:11:21;;;;;;;3.77;2.53;;;15.90;99.90;;;;;;5057188;28;20828;-53
2022/04/26 12:14:12;;;;;;;4.80;3.37;;;15.00;99.90;;;;;;5056006;28;20256;-53
2022/04/26 12:16:43;;;;;;;4.23;2.80;;;14.60;99.90;;;;;;5051374;28;20228;-52
2022/04/26 12:19:10;;;;;;;6.30;2.80;;;14.90;99.90;;;;;;5054281;28;20233;-52
2022/04/26 12:21:54;;;;;;;3.97;3.20;;;15.40;99.90;;;;;;5057376;28;20774;-55
2022/04/26 12:24:27;;;;;;;6.77;2.83;;;15.10;99.90;;;;;;5036312;28;20237;-53
2022/04/26 12:26:59;;;;;;;2.73;2.53;;;15.40;99.90;;;;;;5038784;28;20663;-53
2022/04/26 12:29:35;;;;;;;5.03;2.77;;;15.50;99.90;;;;;;5055640;28;20191;-54
2022/04/26 12:32:17;;;;;;;3.73;2.27;;;15.90;99.90;;;;;;5056496;28;20217;-54
2022/04/26 12:34:52;;;;;;;3.80;3.30;;;16.20;99.90;;;;;;5051191;28;20304;-51
2022/04/26 12:37:23;;;;;;;5.90;2.40;;;15.80;99.90;;;;;;5056793;28;20283;-53
2022/04/26 12:39:53;;;;;;;2.47;2.17;;;15.70;99.90;;;;;;5057651;28;20272;-52
2022/04/26 12:42:34;;;;;;;3.27;2.60;;;15.70;99.90;;;;;;5052161;28;20222;-52
2022/04/26 12:45:03;;;;;;;3.50;2.70;;;15.70;99.90;;;;;;5056399;28;20308;-51
2022/04/26 12:50:29;;;;;;;6.00;2.50;;;15.70;99.90;;;;;;5055379;28;20198;-51
2022/04/26 12:53:00;;;;;;;5.13;2.83;;;15.60;99.90;;;;;;5057958;28;20234;-52
2022/04/26 12:55:31;;;;;;;5.20;2.63;;;15.60;99.90;;;;;;5054172;28;20272;-52
2022/04/26 12:58:03;;;;;;;3.17;2.47;;;15.50;99.90;;;;;;5059791;28;20234;-54
2022/04/26 13:00:31;;;;;;;3.73;2.40;;;16.30;99.90;;;;;;5060352;28;20210;-52
2022/04/26 13:03:04;;;;;;;3.97;2.53;;;16.40;49.10;;;;;;5059085;28;20214;-52
2022/04/26 13:05:37;;;;;;;4.27;2.23;;;17.00;1.00;;;;;;5060952;28;20231;-51
2022/04/26 13:08:05;;;;;;;3.17;2.27;;;17.20;1.00;;;;;;5043065;28;20209;-52
2022/04/26 13:10:33;;;;;;;2.97;2.33;;;17.10;1.00;;;;;;5057222;28;20839;-56
2022/04/26 13:13:00;;;;;;;2.10;1.90;;;17.30;1.00;;;;;;5060111;28;20208;-54
2022/04/26 13:15:27;;;;;;;2.67;2.10;;;17.20;1.00;;;;;;5060182;28;20274;-55
2022/04/26 13:17:54;;;;;;;3.17;2.33;;;17.40;1.00;;;;;;5059024;28;20215;-50
2022/04/26 13:20:20;;;;;;;4.03;2.37;;;17.10;1.00;;;;;;5059986;28;20724;-54
2022/04/26 13:22:47;;;;;;;2.00;1.80;;;16.90;1.00;;;;;;5060628;28;20226;-54
2022/04/26 13:25:14;;;;;;;2.63;2.17;;;16.50;1.00;;;;;;5058219;28;20321;-52
2022/04/26 13:27:41;;;;;;;3.13;2.40;;;16.50;1.00;;;;;;5061408;28;20313;-54
2022/04/26 13:30:08;;;;;;;3.33;2.37;;;17.00;1.00;;;;;;5056977;28;20302;-52
2022/04/26 13:32:35;;;;;;;3.60;2.07;;;16.40;1.00;;;;;;5057961;28;20274;-53
2022/04/26 13:35:05;;;;;;;5.80;2.20;;;16.60;1.00;;;;;;5055251;28;20225;-53
2022/04/26 13:37:32;;;;;;;5.20;2.10;;;16.90;1.00;;;;;;5053952;28;20249;-53
2022/04/26 13:40:00;;;;;;;4.53;2.03;;;17.10;1.00;;;;;;5065301;28;20263;-52
2022/04/26 13:42:30;;;;;;;2.30;2.10;;;17.40;1.00;;;;;;5053167;28;20206;-53
2022/04/26 13:44:58;;;;;;;3.13;1.70;;;17.00;1.00;;;;;;5060732;28;20192;-52
2022/04/26 13:47:25;;;;;;;3.13;1.90;;;17.10;1.00;;;;;;5057504;28;20235;-53
2022/04/26 13:49:52;;;;;;;2.83;1.90;;;17.20;1.00;;;;;;5059048;28;20202;-53
2022/04/26 13:52:20;;;;;;;4.73;2.30;;;17.40;1.00;;;;;;5048547;28;20234;-53
2022/04/26 13:54:48;;;;;;;3.33;1.53;;;16.70;1.00;;;;;;5063153;28;20687;-61
2022/04/26 13:57:15;;;;;;;14.60;2.77;;;16.80;1.00;;;;;;5065041;28;20651;-60
2022/04/26 13:59:43;;;;;;;3.43;1.73;;;17.20;1.00;;;;;;5066525;28;20256;-59
2022/04/26 14:02:11;;;;;;;3.43;1.90;;;17.20;1.00;;;;;;5059935;28;20208;-61
2022/04/26 14:04:39;;;;;;;2.20;2.00;;;17.20;1.00;;;;;;5056246;28;20206;-53
2022/04/26 14:07:06;;;;;;;3.77;2.10;;;17.00;1.00;;;;;;5049490;28;20674;-51
2022/04/26 14:09:33;;;;;;;4.03;2.00;;;16.30;1.00;;;;;;5063967;28;20527;-55
2022/04/26 14:12:01;;;;;;;1.90;1.77;;;16.00;1.00;;;;;;5062906;28;20642;-52
2022/04/26 14:22:46;;;;;;;2.70;1.70;;;16.90;1.00;;;;;;5057964;28;20435;-53
2022/04/26 14:25:13;;;;;;;2.40;2.00;;;16.60;1.00;;;;;;5060624;28;20227;-53
2022/04/26 14:27:43;;;;;;;3.57;1.87;;;16.50;1.00;;;;;;5052262;28;20646;-53
2022/04/26 14:30:12;;;;;;;2.50;1.70;;;16.70;1.00;;;;;;5060893;28;20230;-53
2022/04/26 14:32:59;;;;;;;2.37;1.67;;;16.40;1.00;;;;;;5058093;28;20483;-52
2022/04/26 14:35:28;;;;;;;3.63;1.70;;;16.20;1.00;;;;;;5061252;28;20321;-52
2022/04/26 14:37:56;;;;;;;2.77;1.60;;;16.40;1.00;;;;;;5044811;28;20769;-53
2022/04/26 14:40:23;;;;;;;3.17;1.60;;;16.20;1.00;;;;;;5060129;28;20205;-53
2022/04/26 14:42:50;;;;;;;2.60;1.50;;;16.30;1.00;;;;;;5063023;28;20767;-52
2022/04/26 14:45:17;;;;;;;3.37;2.00;;;16.20;1.00;;;;;;5062184;28;20208;-54
2022/04/26 14:47:44;;;;;;;2.00;1.50;;;16.10;1.00;;;;;;5059883;28;20223;-53
2022/04/26 14:50:11;;;;;;;3.80;1.40;;;16.10;1.00;;;;;;5050492;28;20209;-52
2022/04/26 14:52:38;;;;;;;3.73;1.77;;;16.00;1.00;;;;;;5058944;28;20198;-53
2022/04/26 14:55:08;;;;;;;4.77;1.60;;;15.50;1.00;;;;;;5061447;28;20205;-53
2022/04/26 14:57:36;;;;;;;2.37;1.60;;;15.30;1.00;;;;;;5060036;28;20255;-53
2022/04/26 15:00:07;;;;;;;2.53;2.00;;;15.80;1.00;;;;;;5060105;28;20289;-54
2022/04/26 15:02:40;;;;;;;2.37;1.50;;;15.80;1.00;;;;;;5059534;28;20534;-52
2022/04/26 15:05:09;;;;;;;2.30;1.30;;;15.80;1.00;;;;;;5062239;28;20195;-56
2022/04/26 15:10:25;;;;;;;2.43;1.70;;;15.80;1.00;;;;;;5059156;28;20619;-53
2022/04/26 15:18:24;;;;;;;2.37;1.80;;;15.60;1.00;;;;;;5053000;28;22291;-51
2022/04/26 15:20:52;;;;;;;3.27;1.90;;;15.50;1.00;;;;;;5058083;28;20236;-52
2022/04/26 15:23:20;;;;;;;2.50;2.23;;;15.50;1.00;;;;;;5066510;28;20224;-52
2022/04/26 15:25:52;;;;;;;2.87;1.63;;;15.50;1.00;;;;;;5061234;28;20627;-52
2022/04/26 15:28:20;;;;;;;2.53;1.90;;;15.30;1.00;;;;;;5048847;28;20197;-51
2022/04/26 15:30:48;;;;;;;4.40;1.87;;;15.60;1.00;;;;;;5038163;28;20223;-53
2022/04/26 15:33:19;;;;;;;2.03;1.77;;;15.40;1.00;;;;;;5056604;28;20668;-51
2022/04/26 15:35:46;;;;;;;2.53;2.30;;;15.50;1.00;;;;;;5039123;28;20631;-51
2022/04/26 15:38:13;;;;;;;2.07;1.70;;;15.10;1.00;;;;;;5063577;28;20822;-52
2022/04/26 15:40:42;;;;;;;2.73;1.60;;;15.00;1.00;;;;;;5041603;28;20715;-53
2022/04/26 15:43:10;;;;;;;3.83;2.20;;;15.40;1.00;;;;;;5063317;28;20553;-51
2022/04/26 15:45:37;;;;;;;2.03;1.70;;;15.50;1.00;;;;;;5039932;28;20282;-53
2022/04/26 15:48:05;;;;;;;3.40;1.80;;;15.60;1.00;;;;;;5059639;28;20200;-53
2022/04/26 15:50:32;;;;;;;3.47;1.67;;;14.80;1.00;;;;;;5060758;28;20198;-52
2022/04/26 15:52:59;;;;;;;2.13;1.83;;;15.20;1.00;;;;;;5057272;28;20878;-52
2022/04/26 15:55:34;;;;;;;3.90;2.20;;;15.20;1.00;;;;;;5060346;28;20582;-52
2022/04/26 15:58:01;;;;;;;2.97;2.10;;;14.80;1.00;;;;;;5058548;28;20205;-53
2022/04/26 16:00:28;;;;;;;2.30;1.80;;;15.00;1.00;;;;;;5050582;28;20202;-52
2022/04/26 16:02:55;;;;;;;2.97;1.90;;;14.80;1.00;;;;;;5052137;28;20195;-52
2022/04/26 16:05:22;;;;;;;2.03;1.80;;;15.00;1.00;;;;;;5058504;28;20208;-53
2022/04/26 16:07:51;;;;;;;2.57;2.20;;;14.80;1.00;;;;;;5061345;28;20671;-53
2022/04/26 16:21:25;;;;;;;2.27;1.90;;;14.80;1.00;;;;;;5065396;28;20576;-53
2022/04/26 16:23:54;;;;;;;2.00;1.80;;;14.50;1.00;;;;;;5062204;28;20565;-52
2022/04/26 16:26:22;;;;;;;2.13;1.67;;;14.40;1.00;;;;;;5062431;28;20615;-53
2022/04/26 16:28:53;;;;;;;2.60;1.80;;;14.60;1.00;;;;;;5038737;28;20660;-53
2022/04/26 16:31:27;;;;;;;4.00;2.07;;;14.30;1.00;;;;;;5058594;28;20286;-53
2022/04/26 16:33:55;;;;;;;3.77;2.00;;;14.40;1.00;;;;;;5060015;28;20200;-53
2022/04/26 16:36:22;;;;;;;2.43;1.97;;;14.20;1.00;;;;;;5059250;28;20343;-52
2022/04/26 16:38:50;;;;;;;2.93;2.20;;;14.10;5.10;;;;;;5063570;28;20203;-54
2022/04/26 16:41:17;;;;;;;3.00;2.10;;;14.10;30.00;;;;;;5046855;28;20207;-52
2022/04/26 16:43:44;;;;;;;4.13;2.07;;;14.40;40.30;;;;;;5064003;28;20715;-52
2022/04/26 16:46:11;;;;;;;3.03;1.93;;;14.30;95.70;;;;;;5051937;28;20217;-53
2022/04/26 16:48:38;;;;;;;3.37;2.53;;;14.20;99.90;;;;;;5056388;28;20202;-53
2022/04/26 16:51:05;;;;;;;2.00;1.90;;;14.30;99.90;;;;;;5057725;28;20253;-49
2022/04/26 16:53:32;;;;;;;4.23;2.30;;;13.90;99.90;;;;;;5053141;28;20238;-52
2022/04/26 16:55:59;;;;;;;5.63;3.23;;;14.00;99.90;;;;;;4357741;28;10000718;-52
2022/04/26 16:58:26;;;;;;;4.17;2.47;;;14.20;99.90;;;;;;5055288;28;20281;-53
2022/04/26 17:00:53;;;;;;;3.10;2.60;;;13.90;99.90;;;;;;5057844;28;20253;-53
2022/04/26 17:03:20;;;;;;;3.30;2.30;;;13.90;99.90;;;;;;5055394;28;20684;-52
2022/04/26 17:05:47;;;;;;;3.00;2.10;;;13.90;99.90;;;;;;5057410;28;20287;-53
2022/04/26 17:08:16;;;;;;;6.60;2.40;;;14.00;99.90;;;;;;5058150;28;20213;-54
2022/04/26 17:10:47;;;;;;;2.67;2.20;;;14.10;99.90;;;;;;5049938;28;20654;-53
2022/04/26 17:13:15;;;;;;;3.00;2.33;;;13.80;99.90;;;;;;5060627;28;20235;-53
2022/04/26 17:15:43;;;;;;;4.00;2.63;;;13.60;99.90;;;;;;5059662;28;20236;-54
2022/04/26 17:18:14;;;;;;;3.17;2.40;;;13.60;99.90;;;;;;5057792;28;20656;-53
2022/04/26 17:20:41;;;;;;;5.73;2.30;;;13.90;99.90;;;;;;5061625;28;20215;-53
2022/04/26 17:23:09;;;;;;;3.90;2.90;;;13.80;99.90;;;;;;5058244;28;20317;-53
2022/04/26 17:25:37;;;;;;;3.30;2.27;;;13.50;1.00;;;;;;5060004;28;20294;-52
2022/04/26 17:28:12;;;;;;;2.90;2.47;;;13.30;1.00;;;;;;5055192;28;20211;-53
2022/04/26 17:30:39;;;;;;;3.83;2.60;;;13.10;1.00;;;;;;5059520;28;20227;-53